sensor_id;sensor_type;location;lat;lon;timestamp;P1;durP1;ratioP1;P2;durP2;ratioP2
39032;SDS011;24794;51.982;5.878;2023-05-10T00:00:12;19.60;;;14.35;;
39032;SDS011;24794;51.982;5.878;2023-05-10T00:01:13;19.92;;;13.77;;
39032;SDS011;24794;51.982;5.878;2023-05-10T00:02:13;17.58;;;13.63;;
39032;SDS011;24794;51.982;5.878;2023-05-10T00:03:14;17.45;;;13.10;;
39032;SDS011;24794;51.982;5.878;2023-05-10T00:04:14;16.77;;;12.55;;
39032;SDS011;24794;51.982;5.878;2023-05-10T00:05:15;18.02;;;13.38;;
39032;SDS011;24794;51.982;5.878;2023-05-10T00:06:15;19.17;;;14.38;;
39032;SDS011;24794;51.982;5.878;2023-05-10T00:07:16;18.27;;;13.32;;
39032;SDS011;24794;51.982;5.878;2023-05-10T00:08:19;17.17;;;13.52;;
39032;SDS011;24794;51.982;5.878;2023-05-10T00:09:20;18.98;;;14.55;;
39032;SDS011;24794;51.982;5.878;2023-05-10T00:10:20;20.92;;;14.93;;
39032;SDS011;24794;51.982;5.878;2023-05-10T00:11:21;20.65;;;15.25;;
39032;SDS011;24794;51.982;5.878;2023-05-10T00:12:21;24.73;;;18.00;;
39032;SDS011;24794;51.982;5.878;2023-05-10T00:13:22;23.08;;;16.10;;
39032;SDS011;24794;51.982;5.878;2023-05-10T00:14:22;21.88;;;15.05;;
39032;SDS011;24794;51.982;5.878;2023-05-10T00:15:23;20.60;;;14.55;;
39032;SDS011;24794;51.982;5.878;2023-05-10T00:16:23;22.33;;;15.75;;
39032;SDS011;24794;51.982;5.878;2023-05-10T00:17:24;20.98;;;15.02;;
39032;SDS011;24794;51.982;5.878;2023-05-10T00:18:24;24.02;;;16.77;;
39032;SDS011;24794;51.982;5.878;2023-05-10T00:19:25;23.42;;;16.55;;
39032;SDS011;24794;51.982;5.878;2023-05-10T00:20:26;25.88;;;17.75;;
39032;SDS011;24794;51.982;5.878;2023-05-10T00:21:26;25.65;;;17.38;;
39032;SDS011;24794;51.982;5.878;2023-05-10T00:22:28;22.73;;;15.45;;
39032;SDS011;24794;51.982;5.878;2023-05-10T00:23:28;26.55;;;16.38;;
39032;SDS011;24794;51.982;5.878;2023-05-10T00:24:29;25.33;;;17.08;;
39032;SDS011;24794;51.982;5.878;2023-05-10T00:25:29;25.40;;;17.45;;
39032;SDS011;24794;51.982;5.878;2023-05-10T00:26:30;25.13;;;16.15;;
39032;SDS011;24794;51.982;5.878;2023-05-10T00:27:30;28.55;;;18.48;;
39032;SDS011;24794;51.982;5.878;2023-05-10T00:28:31;24.40;;;17.65;;
39032;SDS011;24794;51.982;5.878;2023-05-10T00:29:31;23.17;;;17.23;;
39032;SDS011;24794;51.982;5.878;2023-05-10T00:30:33;22.15;;;15.40;;
39032;SDS011;24794;51.982;5.878;2023-05-10T00:31:34;25.50;;;16.35;;
39032;SDS011;24794;51.982;5.878;2023-05-10T00:32:34;24.25;;;16.10;;
39032;SDS011;24794;51.982;5.878;2023-05-10T00:33:35;23.25;;;15.57;;
39032;SDS011;24794;51.982;5.878;2023-05-10T00:34:35;21.27;;;15.20;;
39032;SDS011;24794;51.982;5.878;2023-05-10T00:35:36;27.73;;;18.85;;
39032;SDS011;24794;51.982;5.878;2023-05-10T00:36:37;27.92;;;19.13;;
39032;SDS011;24794;51.982;5.878;2023-05-10T00:37:38;29.23;;;19.13;;
39032;SDS011;24794;51.982;5.878;2023-05-10T00:38:38;26.13;;;19.10;;
39032;SDS011;24794;51.982;5.878;2023-05-10T00:39:39;27.45;;;19.52;;
39032;SDS011;24794;51.982;5.878;2023-05-10T00:40:39;29.05;;;21.42;;
39032;SDS011;24794;51.982;5.878;2023-05-10T00:41:40;32.92;;;22.67;;
39032;SDS011;24794;51.982;5.878;2023-05-10T00:42:41;33.25;;;22.45;;
39032;SDS011;24794;51.982;5.878;2023-05-10T00:43:41;33.40;;;22.95;;
39032;SDS011;24794;51.982;5.878;2023-05-10T00:44:42;32.75;;;21.52;;
39032;SDS011;24794;51.982;5.878;2023-05-10T00:45:42;30.60;;;21.02;;
39032;SDS011;24794;51.982;5.878;2023-05-10T00:46:44;34.83;;;23.35;;
39032;SDS011;24794;51.982;5.878;2023-05-10T00:47:45;33.88;;;23.88;;
39032;SDS011;24794;51.982;5.878;2023-05-10T00:48:45;31.80;;;22.65;;
39032;SDS011;24794;51.982;5.878;2023-05-10T00:49:46;35.47;;;25.15;;
39032;SDS011;24794;51.982;5.878;2023-05-10T00:50:47;37.78;;;26.25;;
39032;SDS011;24794;51.982;5.878;2023-05-10T00:51:48;33.90;;;24.23;;
39032;SDS011;24794;51.982;5.878;2023-05-10T00:52:48;36.42;;;24.70;;
39032;SDS011;24794;51.982;5.878;2023-05-10T00:53:49;37.53;;;25.83;;
39032;SDS011;24794;51.982;5.878;2023-05-10T00:54:51;34.00;;;23.63;;
39032;SDS011;24794;51.982;5.878;2023-05-10T00:55:52;37.95;;;25.48;;
39032;SDS011;24794;51.982;5.878;2023-05-10T00:56:53;38.53;;;26.17;;
39032;SDS011;24794;51.982;5.878;2023-05-10T00:57:53;37.00;;;25.40;;
39032;SDS011;24794;51.982;5.878;2023-05-10T00:58:54;37.88;;;26.17;;
39032;SDS011;24794;51.982;5.878;2023-05-10T00:59:55;35.90;;;23.45;;
39032;SDS011;24794;51.982;5.878;2023-05-10T01:00:57;33.25;;;23.75;;
39032;SDS011;24794;51.982;5.878;2023-05-10T01:01:59;34.38;;;23.85;;
39032;SDS011;24794;51.982;5.878;2023-05-10T01:03:00;32.67;;;22.95;;
39032;SDS011;24794;51.982;5.878;2023-05-10T01:04:01;31.70;;;22.63;;
39032;SDS011;24794;51.982;5.878;2023-05-10T01:05:03;38.22;;;26.00;;
39032;SDS011;24794;51.982;5.878;2023-05-10T01:06:04;34.25;;;23.27;;
39032;SDS011;24794;51.982;5.878;2023-05-10T01:07:04;35.13;;;23.70;;
39032;SDS011;24794;51.982;5.878;2023-05-10T01:08:05;38.30;;;26.38;;
39032;SDS011;24794;51.982;5.878;2023-05-10T01:09:06;35.80;;;25.25;;
39032;SDS011;24794;51.982;5.878;2023-05-10T01:10:07;37.15;;;25.98;;
39032;SDS011;24794;51.982;5.878;2023-05-10T01:11:08;42.50;;;28.33;;
39032;SDS011;24794;51.982;5.878;2023-05-10T01:12:09;46.03;;;29.83;;
39032;SDS011;24794;51.982;5.878;2023-05-10T01:13:10;40.88;;;27.75;;
39032;SDS011;24794;51.982;5.878;2023-05-10T01:14:11;42.75;;;26.98;;
39032;SDS011;24794;51.982;5.878;2023-05-10T01:15:11;43.63;;;29.23;;
39032;SDS011;24794;51.982;5.878;2023-05-10T01:16:12;41.80;;;27.85;;
39032;SDS011;24794;51.982;5.878;2023-05-10T01:17:13;40.88;;;28.25;;
39032;SDS011;24794;51.982;5.878;2023-05-10T01:18:15;38.92;;;27.80;;
39032;SDS011;24794;51.982;5.878;2023-05-10T01:19:21;42.28;;;28.95;;
39032;SDS011;24794;51.982;5.878;2023-05-10T01:20:24;40.60;;;26.38;;
39032;SDS011;24794;51.982;5.878;2023-05-10T01:21:33;38.78;;;25.83;;
39032;SDS011;24794;51.982;5.878;2023-05-10T01:24:06;43.08;;;27.90;;
39032;SDS011;24794;51.982;5.878;2023-05-10T01:26:36;36.72;;;24.92;;
39032;SDS011;24794;51.982;5.878;2023-05-10T01:32:14;44.25;;;28.88;;
39032;SDS011;24794;51.982;5.878;2023-05-10T01:33:30;44.15;;;28.17;;
39032;SDS011;24794;51.982;5.878;2023-05-10T01:35:37;47.92;;;30.63;;
39032;SDS011;24794;51.982;5.878;2023-05-10T01:36:32;49.13;;;31.40;;
39032;SDS011;24794;51.982;5.878;2023-05-10T01:37:47;54.97;;;31.65;;
39032;SDS011;24794;51.982;5.878;2023-05-10T01:38:59;48.67;;;30.80;;
39032;SDS011;24794;51.982;5.878;2023-05-10T01:43:03;52.15;;;30.25;;
39032;SDS011;24794;51.982;5.878;2023-05-10T01:45:27;49.92;;;29.23;;
39032;SDS011;24794;51.982;5.878;2023-05-10T01:46:35;48.13;;;30.00;;
39032;SDS011;24794;51.982;5.878;2023-05-10T01:47:44;50.70;;;31.30;;
39032;SDS011;24794;51.982;5.878;2023-05-10T01:48:54;52.15;;;32.05;;
39032;SDS011;24794;51.982;5.878;2023-05-10T01:49:57;48.95;;;30.65;;
39032;SDS011;24794;51.982;5.878;2023-05-10T01:51:02;51.10;;;29.88;;
39032;SDS011;24794;51.982;5.878;2023-05-10T01:52:06;55.00;;;31.63;;
39032;SDS011;24794;51.982;5.878;2023-05-10T01:53:11;57.58;;;31.92;;
39032;SDS011;24794;51.982;5.878;2023-05-10T01:54:13;53.47;;;32.15;;
39032;SDS011;24794;51.982;5.878;2023-05-10T01:55:18;58.55;;;34.22;;
39032;SDS011;24794;51.982;5.878;2023-05-10T01:56:22;53.80;;;31.63;;
39032;SDS011;24794;51.982;5.878;2023-05-10T01:57:26;49.97;;;30.45;;
39032;SDS011;24794;51.982;5.878;2023-05-10T01:58:31;55.20;;;31.00;;
39032;SDS011;24794;51.982;5.878;2023-05-10T01:59:34;49.78;;;30.30;;
39032;SDS011;24794;51.982;5.878;2023-05-10T02:00:36;55.72;;;31.73;;
39032;SDS011;24794;51.982;5.878;2023-05-10T02:01:42;48.90;;;28.77;;
39032;SDS011;24794;51.982;5.878;2023-05-10T02:02:45;46.20;;;27.42;;
39032;SDS011;24794;51.982;5.878;2023-05-10T02:03:49;47.55;;;27.67;;
39032;SDS011;24794;51.982;5.878;2023-05-10T02:04:51;48.63;;;28.80;;
39032;SDS011;24794;51.982;5.878;2023-05-10T02:05:55;48.83;;;28.98;;
39032;SDS011;24794;51.982;5.878;2023-05-10T02:06:57;47.72;;;28.30;;
39032;SDS011;24794;51.982;5.878;2023-05-10T02:07:57;49.67;;;29.30;;
39032;SDS011;24794;51.982;5.878;2023-05-10T02:09:01;48.50;;;28.83;;
39032;SDS011;24794;51.982;5.878;2023-05-10T02:10:05;51.58;;;29.95;;
39032;SDS011;24794;51.982;5.878;2023-05-10T02:11:07;46.72;;;28.15;;
39032;SDS011;24794;51.982;5.878;2023-05-10T02:12:11;48.92;;;27.88;;
39032;SDS011;24794;51.982;5.878;2023-05-10T02:13:13;50.42;;;28.23;;
39032;SDS011;24794;51.982;5.878;2023-05-10T02:14:16;44.47;;;26.38;;
39032;SDS011;24794;51.982;5.878;2023-05-10T02:15:20;52.55;;;28.52;;
39032;SDS011;24794;51.982;5.878;2023-05-10T02:16:24;50.88;;;28.67;;
39032;SDS011;24794;51.982;5.878;2023-05-10T02:17:26;51.78;;;27.60;;
39032;SDS011;24794;51.982;5.878;2023-05-10T02:18:28;52.10;;;30.08;;
39032;SDS011;24794;51.982;5.878;2023-05-10T02:19:31;47.72;;;27.17;;
39032;SDS011;24794;51.982;5.878;2023-05-10T02:20:32;50.65;;;28.75;;
39032;SDS011;24794;51.982;5.878;2023-05-10T02:21:34;56.45;;;31.15;;
39032;SDS011;24794;51.982;5.878;2023-05-10T02:22:35;49.83;;;28.83;;
39032;SDS011;24794;51.982;5.878;2023-05-10T02:23:38;53.10;;;28.73;;
39032;SDS011;24794;51.982;5.878;2023-05-10T02:24:39;51.30;;;28.20;;
39032;SDS011;24794;51.982;5.878;2023-05-10T02:25:41;45.05;;;25.98;;
39032;SDS011;24794;51.982;5.878;2023-05-10T02:26:44;50.08;;;28.60;;
39032;SDS011;24794;51.982;5.878;2023-05-10T02:27:46;45.63;;;26.75;;
39032;SDS011;24794;51.982;5.878;2023-05-10T02:28:48;45.00;;;25.33;;
39032;SDS011;24794;51.982;5.878;2023-05-10T02:29:50;52.25;;;28.38;;
39032;SDS011;24794;51.982;5.878;2023-05-10T02:30:51;50.17;;;29.17;;
39032;SDS011;24794;51.982;5.878;2023-05-10T02:31:54;55.47;;;30.40;;
39032;SDS011;24794;51.982;5.878;2023-05-10T02:32:57;54.95;;;30.80;;
39032;SDS011;24794;51.982;5.878;2023-05-10T02:33:59;48.92;;;27.80;;
39032;SDS011;24794;51.982;5.878;2023-05-10T02:35:01;55.20;;;28.90;;
39032;SDS011;24794;51.982;5.878;2023-05-10T02:36:03;55.15;;;29.80;;
39032;SDS011;24794;51.982;5.878;2023-05-10T02:37:05;55.78;;;29.63;;
39032;SDS011;24794;51.982;5.878;2023-05-10T02:38:06;55.53;;;29.42;;
39032;SDS011;24794;51.982;5.878;2023-05-10T02:39:08;48.38;;;26.77;;
39032;SDS011;24794;51.982;5.878;2023-05-10T02:40:12;53.40;;;29.05;;
39032;SDS011;24794;51.982;5.878;2023-05-10T02:41:14;57.47;;;30.55;;
39032;SDS011;24794;51.982;5.878;2023-05-10T02:42:18;56.22;;;30.42;;
39032;SDS011;24794;51.982;5.878;2023-05-10T02:43:22;59.05;;;31.73;;
39032;SDS011;24794;51.982;5.878;2023-05-10T02:44:23;57.88;;;30.10;;
39032;SDS011;24794;51.982;5.878;2023-05-10T02:45:27;52.17;;;28.90;;
39032;SDS011;24794;51.982;5.878;2023-05-10T02:46:30;58.97;;;32.25;;
39032;SDS011;24794;51.982;5.878;2023-05-10T02:47:31;64.07;;;32.63;;
39032;SDS011;24794;51.982;5.878;2023-05-10T02:48:31;58.45;;;31.40;;
39032;SDS011;24794;51.982;5.878;2023-05-10T02:49:32;61.58;;;32.47;;
39032;SDS011;24794;51.982;5.878;2023-05-10T02:50:33;61.35;;;32.70;;
39032;SDS011;24794;51.982;5.878;2023-05-10T02:51:35;71.60;;;35.05;;
39032;SDS011;24794;51.982;5.878;2023-05-10T02:52:44;70.13;;;34.13;;
39032;SDS011;24794;51.982;5.878;2023-05-10T02:53:47;66.07;;;33.97;;
39032;SDS011;24794;51.982;5.878;2023-05-10T02:54:51;74.00;;;36.13;;
39032;SDS011;24794;51.982;5.878;2023-05-10T02:55:55;72.90;;;37.05;;
39032;SDS011;24794;51.982;5.878;2023-05-10T02:57:00;62.78;;;33.92;;
39032;SDS011;24794;51.982;5.878;2023-05-10T02:58:05;62.72;;;33.65;;
39032;SDS011;24794;51.982;5.878;2023-05-10T02:59:05;65.40;;;34.70;;
39032;SDS011;24794;51.982;5.878;2023-05-10T03:00:06;68.13;;;35.88;;
39032;SDS011;24794;51.982;5.878;2023-05-10T03:01:07;62.08;;;33.60;;
39032;SDS011;24794;51.982;5.878;2023-05-10T03:02:08;68.93;;;34.92;;
39032;SDS011;24794;51.982;5.878;2023-05-10T03:03:10;67.53;;;35.30;;
39032;SDS011;24794;51.982;5.878;2023-05-10T03:04:10;62.00;;;33.45;;
39032;SDS011;24794;51.982;5.878;2023-05-10T03:05:11;60.30;;;32.53;;
39032;SDS011;24794;51.982;5.878;2023-05-10T03:06:11;66.50;;;34.80;;
39032;SDS011;24794;51.982;5.878;2023-05-10T03:07:12;68.70;;;34.85;;
39032;SDS011;24794;51.982;5.878;2023-05-10T03:08:13;73.05;;;36.42;;
39032;SDS011;24794;51.982;5.878;2023-05-10T03:09:13;68.10;;;35.95;;
39032;SDS011;24794;51.982;5.878;2023-05-10T03:10:15;66.65;;;35.53;;
39032;SDS011;24794;51.982;5.878;2023-05-10T03:11:32;72.95;;;37.47;;
39032;SDS011;24794;51.982;5.878;2023-05-10T03:12:43;69.25;;;36.40;;
39032;SDS011;24794;51.982;5.878;2023-05-10T03:16:08;66.43;;;34.85;;
39032;SDS011;24794;51.982;5.878;2023-05-10T03:17:20;63.10;;;33.80;;
39032;SDS011;24794;51.982;5.878;2023-05-10T03:19:51;71.07;;;36.47;;
39032;SDS011;24794;51.982;5.878;2023-05-10T03:20:57;66.70;;;37.35;;
39032;SDS011;24794;51.982;5.878;2023-05-10T03:22:03;66.32;;;35.97;;
39032;SDS011;24794;51.982;5.878;2023-05-10T03:24:18;64.22;;;34.78;;
39032;SDS011;24794;51.982;5.878;2023-05-10T03:25:21;68.50;;;35.28;;
39032;SDS011;24794;51.982;5.878;2023-05-10T03:26:24;62.50;;;34.00;;
39032;SDS011;24794;51.982;5.878;2023-05-10T03:27:26;70.10;;;35.58;;
39032;SDS011;24794;51.982;5.878;2023-05-10T03:28:29;62.17;;;33.92;;
39032;SDS011;24794;51.982;5.878;2023-05-10T03:29:32;68.88;;;36.38;;
39032;SDS011;24794;51.982;5.878;2023-05-10T03:30:33;66.97;;;36.70;;
39032;SDS011;24794;51.982;5.878;2023-05-10T03:31:35;67.90;;;35.50;;
39032;SDS011;24794;51.982;5.878;2023-05-10T03:32:36;71.68;;;36.78;;
39032;SDS011;24794;51.982;5.878;2023-05-10T03:33:45;66.25;;;35.80;;
39032;SDS011;24794;51.982;5.878;2023-05-10T03:34:49;73.25;;;38.00;;
39032;SDS011;24794;51.982;5.878;2023-05-10T03:35:50;68.97;;;37.08;;
39032;SDS011;24794;51.982;5.878;2023-05-10T03:36:51;71.90;;;37.60;;
39032;SDS011;24794;51.982;5.878;2023-05-10T03:37:51;75.75;;;37.38;;
39032;SDS011;24794;51.982;5.878;2023-05-10T03:38:52;66.50;;;37.63;;
39032;SDS011;24794;51.982;5.878;2023-05-10T03:39:52;62.20;;;34.08;;
39032;SDS011;24794;51.982;5.878;2023-05-10T03:40:53;65.90;;;37.03;;
39032;SDS011;24794;51.982;5.878;2023-05-10T03:41:53;63.58;;;35.80;;
39032;SDS011;24794;51.982;5.878;2023-05-10T03:42:54;72.50;;;38.03;;
39032;SDS011;24794;51.982;5.878;2023-05-10T03:43:55;70.72;;;37.85;;
39032;SDS011;24794;51.982;5.878;2023-05-10T03:44:55;66.00;;;34.95;;
39032;SDS011;24794;51.982;5.878;2023-05-10T03:45:56;64.82;;;35.85;;
39032;SDS011;24794;51.982;5.878;2023-05-10T03:46:56;67.72;;;37.10;;
39032;SDS011;24794;51.982;5.878;2023-05-10T03:47:57;69.25;;;37.58;;
39032;SDS011;24794;51.982;5.878;2023-05-10T03:48:58;69.47;;;36.90;;
39032;SDS011;24794;51.982;5.878;2023-05-10T03:49:59;67.43;;;38.28;;
39032;SDS011;24794;51.982;5.878;2023-05-10T03:50:59;78.25;;;39.30;;
39032;SDS011;24794;51.982;5.878;2023-05-10T03:52:00;70.05;;;38.20;;
39032;SDS011;24794;51.982;5.878;2023-05-10T03:53:00;76.60;;;38.92;;
39032;SDS011;24794;51.982;5.878;2023-05-10T03:54:02;67.28;;;37.35;;
39032;SDS011;24794;51.982;5.878;2023-05-10T03:55:02;70.55;;;38.63;;
39032;SDS011;24794;51.982;5.878;2023-05-10T03:56:03;66.65;;;37.33;;
39032;SDS011;24794;51.982;5.878;2023-05-10T03:57:04;67.20;;;37.08;;
39032;SDS011;24794;51.982;5.878;2023-05-10T03:58:04;66.22;;;37.05;;
39032;SDS011;24794;51.982;5.878;2023-05-10T03:59:05;62.85;;;34.67;;
39032;SDS011;24794;51.982;5.878;2023-05-10T04:00:07;63.28;;;37.05;;
39032;SDS011;24794;51.982;5.878;2023-05-10T04:01:08;66.10;;;36.10;;
39032;SDS011;24794;51.982;5.878;2023-05-10T04:02:09;59.88;;;34.90;;
39032;SDS011;24794;51.982;5.878;2023-05-10T04:03:10;69.82;;;37.35;;
39032;SDS011;24794;51.982;5.878;2023-05-10T04:04:11;60.53;;;34.42;;
39032;SDS011;24794;51.982;5.878;2023-05-10T04:05:11;63.70;;;35.97;;
39032;SDS011;24794;51.982;5.878;2023-05-10T04:06:12;61.47;;;34.15;;
39032;SDS011;24794;51.982;5.878;2023-05-10T04:07:13;60.70;;;32.63;;
39032;SDS011;24794;51.982;5.878;2023-05-10T04:08:14;60.90;;;33.35;;
39032;SDS011;24794;51.982;5.878;2023-05-10T04:09:16;60.45;;;34.25;;
39032;SDS011;24794;51.982;5.878;2023-05-10T04:10:17;57.95;;;32.03;;
39032;SDS011;24794;51.982;5.878;2023-05-10T04:11:17;56.78;;;32.08;;
39032;SDS011;24794;51.982;5.878;2023-05-10T04:12:18;51.85;;;30.88;;
39032;SDS011;24794;51.982;5.878;2023-05-10T04:13:18;52.20;;;29.50;;
39032;SDS011;24794;51.982;5.878;2023-05-10T04:14:19;51.38;;;28.52;;
39032;SDS011;24794;51.982;5.878;2023-05-10T04:15:20;55.25;;;31.15;;
39032;SDS011;24794;51.982;5.878;2023-05-10T04:16:20;54.80;;;31.60;;
39032;SDS011;24794;51.982;5.878;2023-05-10T04:17:21;54.60;;;30.00;;
39032;SDS011;24794;51.982;5.878;2023-05-10T04:18:21;51.40;;;29.65;;
39032;SDS011;24794;51.982;5.878;2023-05-10T04:19:22;56.50;;;31.67;;
39032;SDS011;24794;51.982;5.878;2023-05-10T04:20:22;52.50;;;30.48;;
39032;SDS011;24794;51.982;5.878;2023-05-10T04:21:23;61.78;;;33.40;;
39032;SDS011;24794;51.982;5.878;2023-05-10T04:22:23;53.08;;;30.90;;
39032;SDS011;24794;51.982;5.878;2023-05-10T04:23:24;56.47;;;32.13;;
39032;SDS011;24794;51.982;5.878;2023-05-10T04:24:25;52.15;;;29.13;;
39032;SDS011;24794;51.982;5.878;2023-05-10T04:25:25;53.33;;;29.35;;
39032;SDS011;24794;51.982;5.878;2023-05-10T04:26:26;56.45;;;29.85;;
39032;SDS011;24794;51.982;5.878;2023-05-10T04:27:26;49.55;;;28.65;;
39032;SDS011;24794;51.982;5.878;2023-05-10T04:28:27;50.20;;;30.45;;
39032;SDS011;24794;51.982;5.878;2023-05-10T04:29:27;55.70;;;30.02;;
39032;SDS011;24794;51.982;5.878;2023-05-10T04:30:28;53.13;;;30.27;;
39032;SDS011;24794;51.982;5.878;2023-05-10T04:31:29;52.85;;;28.83;;
39032;SDS011;24794;51.982;5.878;2023-05-10T04:32:29;56.05;;;31.08;;
39032;SDS011;24794;51.982;5.878;2023-05-10T04:33:31;54.67;;;29.73;;
39032;SDS011;24794;51.982;5.878;2023-05-10T04:34:32;57.78;;;31.08;;
39032;SDS011;24794;51.982;5.878;2023-05-10T04:35:34;54.72;;;30.35;;
39032;SDS011;24794;51.982;5.878;2023-05-10T04:36:35;65.43;;;32.83;;
39032;SDS011;24794;51.982;5.878;2023-05-10T04:37:36;60.00;;;32.40;;
39032;SDS011;24794;51.982;5.878;2023-05-10T04:38:37;56.75;;;31.00;;
39032;SDS011;24794;51.982;5.878;2023-05-10T04:39:37;55.65;;;30.75;;
39032;SDS011;24794;51.982;5.878;2023-05-10T04:40:37;61.13;;;32.08;;
39032;SDS011;24794;51.982;5.878;2023-05-10T04:41:38;61.63;;;33.22;;
39032;SDS011;24794;51.982;5.878;2023-05-10T04:42:42;56.45;;;29.88;;
39032;SDS011;24794;51.982;5.878;2023-05-10T04:43:43;54.60;;;30.20;;
39032;SDS011;24794;51.982;5.878;2023-05-10T04:44:44;50.05;;;28.05;;
39032;SDS011;24794;51.982;5.878;2023-05-10T04:45:44;49.10;;;27.58;;
39032;SDS011;24794;51.982;5.878;2023-05-10T04:46:45;50.00;;;27.83;;
39032;SDS011;24794;51.982;5.878;2023-05-10T04:47:46;58.30;;;29.13;;
39032;SDS011;24794;51.982;5.878;2023-05-10T04:48:46;55.15;;;28.13;;
39032;SDS011;24794;51.982;5.878;2023-05-10T04:49:47;56.40;;;31.23;;
39032;SDS011;24794;51.982;5.878;2023-05-10T04:50:47;54.95;;;30.10;;
39032;SDS011;24794;51.982;5.878;2023-05-10T04:51:48;49.92;;;27.60;;
39032;SDS011;24794;51.982;5.878;2023-05-10T04:52:48;49.42;;;26.70;;
39032;SDS011;24794;51.982;5.878;2023-05-10T04:53:49;54.80;;;28.80;;
39032;SDS011;24794;51.982;5.878;2023-05-10T04:54:49;53.22;;;28.63;;
39032;SDS011;24794;51.982;5.878;2023-05-10T04:55:50;61.38;;;29.98;;
39032;SDS011;24794;51.982;5.878;2023-05-10T04:56:51;54.28;;;29.13;;
39032;SDS011;24794;51.982;5.878;2023-05-10T04:57:51;63.42;;;30.63;;
39032;SDS011;24794;51.982;5.878;2023-05-10T04:58:52;56.92;;;30.33;;
39032;SDS011;24794;51.982;5.878;2023-05-10T04:59:53;52.45;;;27.40;;
39032;SDS011;24794;51.982;5.878;2023-05-10T05:00:53;52.53;;;27.90;;
39032;SDS011;24794;51.982;5.878;2023-05-10T05:01:54;54.35;;;29.48;;
39032;SDS011;24794;51.982;5.878;2023-05-10T05:02:55;61.03;;;30.17;;
39032;SDS011;24794;51.982;5.878;2023-05-10T05:03:55;54.17;;;27.27;;
39032;SDS011;24794;51.982;5.878;2023-05-10T05:04:56;57.85;;;28.00;;
39032;SDS011;24794;51.982;5.878;2023-05-10T05:05:57;47.03;;;25.70;;
39032;SDS011;24794;51.982;5.878;2023-05-10T05:06:58;44.38;;;23.67;;
39032;SDS011;24794;51.982;5.878;2023-05-10T05:07:58;44.63;;;24.33;;
39032;SDS011;24794;51.982;5.878;2023-05-10T05:08:59;50.97;;;25.88;;
39032;SDS011;24794;51.982;5.878;2023-05-10T05:09:59;46.53;;;24.67;;
39032;SDS011;24794;51.982;5.878;2023-05-10T05:11:00;51.60;;;28.02;;
39032;SDS011;24794;51.982;5.878;2023-05-10T05:12:00;51.97;;;27.75;;
39032;SDS011;24794;51.982;5.878;2023-05-10T05:13:01;51.38;;;27.38;;
39032;SDS011;24794;51.982;5.878;2023-05-10T05:14:02;47.15;;;25.88;;
39032;SDS011;24794;51.982;5.878;2023-05-10T05:15:02;48.70;;;25.63;;
39032;SDS011;24794;51.982;5.878;2023-05-10T05:16:03;48.58;;;28.02;;
39032;SDS011;24794;51.982;5.878;2023-05-10T05:17:05;51.58;;;28.40;;
39032;SDS011;24794;51.982;5.878;2023-05-10T05:18:05;57.88;;;31.38;;
39032;SDS011;24794;51.982;5.878;2023-05-10T05:19:06;55.03;;;28.80;;
39032;SDS011;24794;51.982;5.878;2023-05-10T05:20:07;55.75;;;28.98;;
39032;SDS011;24794;51.982;5.878;2023-05-10T05:21:14;55.13;;;28.60;;
39032;SDS011;24794;51.982;5.878;2023-05-10T05:22:16;47.72;;;26.92;;
39032;SDS011;24794;51.982;5.878;2023-05-10T05:23:16;48.53;;;28.35;;
39032;SDS011;24794;51.982;5.878;2023-05-10T05:24:18;49.05;;;27.10;;
39032;SDS011;24794;51.982;5.878;2023-05-10T05:25:18;47.97;;;27.35;;
39032;SDS011;24794;51.982;5.878;2023-05-10T05:26:19;55.42;;;28.08;;
39032;SDS011;24794;51.982;5.878;2023-05-10T05:27:20;49.53;;;27.17;;
39032;SDS011;24794;51.982;5.878;2023-05-10T05:28:24;48.78;;;27.08;;
39032;SDS011;24794;51.982;5.878;2023-05-10T05:29:24;40.97;;;24.60;;
39032;SDS011;24794;51.982;5.878;2023-05-10T05:30:25;48.20;;;25.85;;
39032;SDS011;24794;51.982;5.878;2023-05-10T05:31:25;48.45;;;25.88;;
39032;SDS011;24794;51.982;5.878;2023-05-10T05:32:26;46.40;;;25.90;;
39032;SDS011;24794;51.982;5.878;2023-05-10T05:33:26;49.42;;;26.25;;
39032;SDS011;24794;51.982;5.878;2023-05-10T05:34:27;53.60;;;28.30;;
39032;SDS011;24794;51.982;5.878;2023-05-10T05:35:27;48.63;;;26.45;;
39032;SDS011;24794;51.982;5.878;2023-05-10T05:36:28;49.90;;;25.77;;
39032;SDS011;24794;51.982;5.878;2023-05-10T05:37:28;49.33;;;25.50;;
39032;SDS011;24794;51.982;5.878;2023-05-10T05:38:29;47.78;;;25.60;;
39032;SDS011;24794;51.982;5.878;2023-05-10T05:39:30;49.85;;;27.17;;
39032;SDS011;24794;51.982;5.878;2023-05-10T05:40:30;48.53;;;25.83;;
39032;SDS011;24794;51.982;5.878;2023-05-10T05:41:31;40.97;;;23.58;;
39032;SDS011;24794;51.982;5.878;2023-05-10T05:42:31;46.83;;;26.25;;
39032;SDS011;24794;51.982;5.878;2023-05-10T05:43:32;44.80;;;25.05;;
39032;SDS011;24794;51.982;5.878;2023-05-10T05:44:32;45.55;;;24.67;;
39032;SDS011;24794;51.982;5.878;2023-05-10T05:45:33;43.97;;;23.75;;
39032;SDS011;24794;51.982;5.878;2023-05-10T05:46:34;42.33;;;23.80;;
39032;SDS011;24794;51.982;5.878;2023-05-10T05:47:34;55.55;;;27.20;;
39032;SDS011;24794;51.982;5.878;2023-05-10T05:48:35;55.55;;;29.48;;
39032;SDS011;24794;51.982;5.878;2023-05-10T05:49:35;54.00;;;29.17;;
39032;SDS011;24794;51.982;5.878;2023-05-10T05:50:36;57.85;;;30.05;;
39032;SDS011;24794;51.982;5.878;2023-05-10T05:51:36;51.33;;;28.40;;
39032;SDS011;24794;51.982;5.878;2023-05-10T05:52:37;57.85;;;30.13;;
39032;SDS011;24794;51.982;5.878;2023-05-10T05:53:37;53.13;;;28.48;;
39032;SDS011;24794;51.982;5.878;2023-05-10T05:54:38;51.40;;;27.75;;
39032;SDS011;24794;51.982;5.878;2023-05-10T05:55:39;54.22;;;28.20;;
39032;SDS011;24794;51.982;5.878;2023-05-10T05:56:39;52.40;;;28.00;;
39032;SDS011;24794;51.982;5.878;2023-05-10T05:57:40;48.97;;;26.67;;
39032;SDS011;24794;51.982;5.878;2023-05-10T05:58:40;48.28;;;25.27;;
39032;SDS011;24794;51.982;5.878;2023-05-10T05:59:41;46.08;;;26.00;;
39032;SDS011;24794;51.982;5.878;2023-05-10T06:00:43;52.60;;;26.15;;
39032;SDS011;24794;51.982;5.878;2023-05-10T06:01:44;48.88;;;25.48;;
39032;SDS011;24794;51.982;5.878;2023-05-10T06:02:45;47.45;;;24.85;;
39032;SDS011;24794;51.982;5.878;2023-05-10T06:03:46;53.60;;;28.48;;
39032;SDS011;24794;51.982;5.878;2023-05-10T06:04:46;63.33;;;30.35;;
39032;SDS011;24794;51.982;5.878;2023-05-10T06:05:47;75.75;;;32.90;;
39032;SDS011;24794;51.982;5.878;2023-05-10T06:06:48;62.95;;;30.08;;
39032;SDS011;24794;51.982;5.878;2023-05-10T06:07:48;61.75;;;29.75;;
39032;SDS011;24794;51.982;5.878;2023-05-10T06:08:49;56.30;;;28.10;;
39032;SDS011;24794;51.982;5.878;2023-05-10T06:09:49;55.83;;;27.10;;
39032;SDS011;24794;51.982;5.878;2023-05-10T06:10:50;70.20;;;33.03;;
39032;SDS011;24794;51.982;5.878;2023-05-10T06:11:50;63.53;;;30.98;;
39032;SDS011;24794;51.982;5.878;2023-05-10T06:12:51;69.93;;;31.73;;
39032;SDS011;24794;51.982;5.878;2023-05-10T06:13:52;56.67;;;28.70;;
39032;SDS011;24794;51.982;5.878;2023-05-10T06:14:53;60.95;;;30.50;;
39032;SDS011;24794;51.982;5.878;2023-05-10T06:15:53;59.13;;;31.42;;
39032;SDS011;24794;51.982;5.878;2023-05-10T06:16:54;62.05;;;30.70;;
39032;SDS011;24794;51.982;5.878;2023-05-10T06:17:54;72.53;;;33.78;;